Time;durP1;ratioP1;P1;durP2;ratioP2;P2;SDS_P1;SDS_P2;PMS_P1;PMS_P2;Temp;Humidity;BMP_temperature;BMP_pressure;BME280_temperature;BME280_humidity;BME280_pressure;Samples;Min_cycle;Max_cycle;Signal;HPM_P1;HPM_P2
2022/05/17 00:01:29;;;;;;;3.20;1.30;;;;;;;19.44;59.91;100201.59;4919618;29;20020;-91
2022/05/17 00:03:55;;;;;;;3.42;1.20;;;;;;;19.42;59.13;100199.06;4918647;29;20047;-91
2022/05/17 00:06:20;;;;;;;4.28;1.55;;;;;;;19.40;60.06;100209.28;4919755;29;20034;-90
2022/05/17 00:08:55;;;;;;;2.05;1.13;;;;;;;19.36;59.66;100204.38;4920242;29;20382;-91
2022/05/17 00:11:21;;;;;;;2.63;1.00;;;;;;;19.35;60.14;100197.28;4920230;29;20051;-91
2022/05/17 00:13:46;;;;;;;2.85;1.13;;;;;;;19.34;59.43;100190.19;4919912;29;20394;-91
2022/05/17 00:16:12;;;;;;;2.88;1.30;;;;;;;19.28;59.44;100194.47;4919088;29;20024;-90
2022/05/17 00:18:38;;;;;;;3.40;1.45;;;;;;;19.26;59.31;100199.25;4935694;29;20020;-91
2022/05/17 00:21:04;;;;;;;1.95;1.20;;;;;;;19.21;59.19;100198.97;4920015;29;20489;-90
2022/05/17 00:23:29;;;;;;;2.30;1.17;;;;;;;19.19;59.71;100204.59;4919384;29;20502;-91
2022/05/17 00:25:56;;;;;;;2.00;1.38;;;;;;;19.16;59.49;100196.84;4919741;29;20035;-90
2022/05/17 00:28:21;;;;;;;1.80;1.10;;;;;;;19.13;59.85;100196.38;4919439;29;20039;-91
2022/05/17 00:30:49;;;;;;;2.45;1.20;;;;;;;19.16;59.47;100198.72;4919751;29;20024;-91
2022/05/17 00:33:14;;;;;;;1.95;1.30;;;;;;;19.12;59.85;100195.53;4919070;29;20027;-91
2022/05/17 00:35:40;;;;;;;3.20;1.17;;;;;;;19.09;59.01;100192.34;4919487;29;20489;-90
2022/05/17 00:38:06;;;;;;;2.72;1.27;;;;;;;19.07;59.47;100180.84;4919422;29;20123;-91
2022/05/17 00:40:31;;;;;;;2.83;1.27;;;;;;;19.05;59.17;100186.47;4935664;29;20114;-91
2022/05/17 00:42:56;;;;;;;3.08;1.42;;;;;;;19.04;60.41;100175.81;4919107;29;20107;-91
2022/05/17 00:45:22;;;;;;;3.53;1.30;;;;;;;19.03;59.30;100187.69;4919204;29;20032;-90
2022/05/17 00:47:51;;;;;;;2.35;1.20;;;;;;;19.02;60.28;100186.00;4919126;29;20024;-90
2022/05/17 00:50:30;;;;;;;3.28;1.33;;;;;;;19.00;59.11;100178.06;4919246;29;20114;-91
2022/05/17 00:53:02;;;;;;;2.88;1.30;;;;;;;19.01;60.50;100174.31;4935095;29;20083;-90
2022/05/17 00:55:32;;;;;;;4.82;1.50;;;;;;;18.97;59.87;100172.16;4935267;29;20382;-91
2022/05/17 00:58:01;;;;;;;3.42;1.50;;;;;;;18.92;59.77;100175.44;4919316;29;20537;-91
2022/05/17 01:00:36;;;;;;;4.15;1.30;;;;;;;18.93;60.68;100177.13;4934844;29;20363;-91
2022/05/17 01:03:05;;;;;;;2.45;1.30;;;;;;;18.91;60.78;100181.84;4918495;29;20027;-91
2022/05/17 01:05:32;;;;;;;3.10;1.42;;;;;;;18.92;60.63;100185.41;4918914;29;20027;-91
2022/05/17 01:07:59;;;;;;;5.78;1.52;;;;;;;18.88;60.59;100187.66;4919359;29;20201;-91
2022/05/17 01:10:27;;;;;;;3.88;1.55;;;;;;;18.85;60.69;100183.44;4919043;29;20027;-91
2022/05/17 01:15:36;;;;;;;2.88;1.65;;;;;;;18.83;61.36;100181.94;4938940;29;20070;-91
2022/05/17 01:18:04;;;;;;;4.40;2.03;;;;;;;18.82;60.41;100181.09;4922775;29;20055;-91
2022/05/17 01:20:29;;;;;;;3.00;1.80;;;;;;;18.82;60.98;100178.41;4922597;29;20521;-91
2022/05/17 01:22:55;;;;;;;3.53;1.58;;;;;;;18.81;61.08;100178.59;4938080;29;20032;-91
2022/05/17 01:25:21;;;;;;;4.28;1.60;;;;;;;18.76;61.27;100175.59;4922591;29;20492;-91
2022/05/17 01:27:51;;;;;;;2.80;1.80;;;;;;;18.69;60.38;100170.06;4922509;29;20027;-91
2022/05/17 01:30:24;;;;;;;3.42;1.80;;;;;;;18.68;60.55;100171.09;4922373;29;20032;-90
2022/05/17 01:32:49;;;;;;;2.53;1.60;;;;;;;18.65;61.24;100162.50;4922590;29;20020;-91
2022/05/17 01:35:14;;;;;;;3.05;1.80;;;;;;;18.65;61.13;100167.91;4922428;29;20031;-90
2022/05/17 01:37:40;;;;;;;2.78;1.80;;;;;;;18.63;60.99;100164.56;4922347;29;20418;-91
2022/05/17 01:40:06;;;;;;;3.33;2.15;;;;;;;18.62;60.84;100171.84;4922140;29;20501;-90
2022/05/17 01:42:32;;;;;;;4.97;1.77;;;;;;;18.64;60.79;100167.06;4922346;29;20521;-91
2022/05/17 01:44:58;;;;;;;12.77;2.30;;;;;;;18.62;60.76;100168.28;4922312;29;20066;-91
2022/05/17 01:47:23;;;;;;;3.00;1.85;;;;;;;18.60;60.98;100170.31;4922100;29;20027;-90
2022/05/17 01:49:48;;;;;;;2.95;1.80;;;;;;;18.56;61.15;100162.56;4922407;29;20020;-90
2022/05/17 01:52:14;;;;;;;2.65;1.90;;;;;;;18.54;62.00;100166.47;4922324;29;20060;-92
2022/05/17 01:54:39;;;;;;;4.75;2.33;;;;;;;18.52;62.01;100165.81;4922042;29;20032;-91
2022/05/17 01:57:05;;;;;;;6.05;1.92;;;;;;;18.51;61.43;100164.97;4921888;29;20114;-90
2022/05/17 01:59:32;;;;;;;4.93;2.00;;;;;;;18.54;61.63;100174.59;4921796;29;20023;-90
2022/05/17 02:01:57;;;;;;;4.38;1.92;;;;;;;18.51;61.87;100174.97;4921849;29;20027;-91
2022/05/17 02:04:22;;;;;;;4.53;2.10;;;;;;;18.47;62.09;100177.22;4921699;29;20507;-90
2022/05/17 02:06:48;;;;;;;2.85;1.60;;;;;;;18.45;60.81;100179.25;4922724;29;20170;-91
2022/05/17 02:09:13;;;;;;;2.45;1.88;;;;;;;18.43;61.12;100178.56;4922264;29;20031;-91
2022/05/17 02:11:39;;;;;;;5.00;1.80;;;;;;;18.41;61.86;100179.78;4921402;29;20040;-90
2022/05/17 02:14:04;;;;;;;3.80;1.92;;;;;;;18.33;61.67;100182.56;4922033;29;20526;-90
2022/05/17 02:16:34;;;;;;;2.92;2.00;;;;;;;18.37;61.65;100182.00;4921803;29;20031;-90
2022/05/17 02:18:59;;;;;;;5.28;2.03;;;;;;;18.38;61.55;100185.56;4921545;29;20024;-90
2022/05/17 02:21:24;;;;;;;1.95;1.60;;;;;;;18.34;61.77;100185.09;4921396;29;20074;-90
2022/05/17 02:23:50;;;;;;;4.03;1.48;;;;;;;18.30;61.35;100186.47;4921389;29;20497;-91
2022/05/17 02:26:15;;;;;;;3.22;1.60;;;;;;;18.29;60.94;100170.41;4920609;29;20058;-91
2022/05/17 02:28:43;;;;;;;2.08;1.60;;;;;;;18.32;61.54;100170.03;4921782;29;20027;-91
2022/05/17 02:31:11;;;;;;;4.00;1.75;;;;;;;18.32;61.18;100165.47;4921917;29;20382;-90
2022/05/17 02:33:36;;;;;;;3.55;1.83;;;;;;;18.29;61.43;100173.13;4921314;29;20051;-90
2022/05/17 02:36:02;;;;;;;5.07;2.13;;;;;;;18.25;62.05;100168.06;4921593;29;20115;-91
2022/05/17 02:38:27;;;;;;;4.00;1.83;;;;;;;18.32;62.03;100165.47;4921418;29;20024;-90
2022/05/17 02:40:53;;;;;;;3.10;1.75;;;;;;;18.35;62.38;100162.41;4920715;29;20035;-90
2022/05/17 02:43:18;;;;;;;3.70;1.75;;;;;;;18.42;62.67;100159.78;4920921;29;20039;-90
2022/05/17 02:45:44;;;;;;;5.28;1.67;;;;;;;18.37;62.21;100165.75;4921166;29;20071;-91
2022/05/17 02:48:10;;;;;;;3.75;1.50;;;;;;;18.39;62.60;100166.41;4921231;29;20034;-90
2022/05/17 02:50:35;;;;;;;3.45;1.85;;;;;;;18.46;61.86;100164.69;4920978;29;20023;-91
2022/05/17 02:53:00;;;;;;;2.90;1.60;;;;;;;18.36;61.29;100164.06;4920688;29;20032;-90
2022/05/17 02:55:26;;;;;;;3.05;1.80;;;;;;;18.28;62.03;100163.31;4920452;29;20075;-91
2022/05/17 02:57:51;;;;;;;3.92;2.00;;;;;;;18.30;62.20;100170.22;4920742;29;20114;-90
2022/05/17 03:00:17;;;;;;;4.03;1.75;;;;;;;18.31;62.83;100162.94;4921055;29;20019;-91
2022/05/17 03:02:43;;;;;;;3.22;1.33;;;;;;;18.30;62.55;100162.09;4920961;29;20032;-90
2022/05/17 03:05:09;;;;;;;2.97;1.58;;;;;;;18.29;62.58;100170.41;4920798;29;20147;-91
2022/05/17 03:07:35;;;;;;;2.88;1.70;;;;;;;18.25;62.56;100170.78;4920916;29;20031;-90
2022/05/17 03:10:00;;;;;;;3.17;1.95;;;;;;;18.26;61.91;100179.75;4920595;29;20533;-91
2022/05/17 03:12:25;;;;;;;4.90;1.63;;;;;;;18.28;61.77;100184.97;4920401;29;20126;-91
2022/05/17 03:14:51;;;;;;;4.78;1.83;;;;;;;18.14;62.00;100183.91;4920292;29;20060;-90
2022/05/17 03:17:17;;;;;;;4.15;2.10;;;;;;;18.14;62.67;100182.03;4920495;29;20111;-90
2022/05/17 03:19:43;;;;;;;3.17;1.85;;;;;;;18.10;62.44;100191.56;4920417;29;20038;-91
2022/05/17 03:22:08;;;;;;;2.85;1.55;;;;;;;18.22;63.67;100200.09;4919970;29;20027;-90
2022/05/17 03:24:34;;;;;;;2.65;1.90;;;;;;;18.28;63.05;100202.06;4920008;29;20043;-90
2022/05/17 03:27:00;;;;;;;3.33;1.48;;;;;;;18.29;63.19;100201.03;4920520;29;20027;-91
2022/05/17 03:29:26;;;;;;;3.63;1.70;;;;;;;18.28;62.39;100198.50;4920288;29;20063;-91
2022/05/17 03:31:51;;;;;;;4.15;1.90;;;;;;;18.25;63.33;100199.72;4920404;29;20038;-89
2022/05/17 03:34:17;;;;;;;3.28;1.75;;;;;;;18.23;62.59;100191.78;4920057;29;20035;-91
2022/05/17 03:36:42;;;;;;;2.47;1.70;;;;;;;18.27;62.73;100192.25;4919768;29;20365;-91
2022/05/17 03:39:08;;;;;;;5.35;1.70;;;;;;;18.22;63.09;100197.38;4920209;29;20035;-90
2022/05/17 03:41:33;;;;;;;3.45;1.60;;;;;;;18.19;62.06;100195.03;4920050;29;20031;-90
2022/05/17 03:43:58;;;;;;;4.25;2.10;;;;;;;18.17;62.94;100183.53;4920121;29;20471;-90
2022/05/17 03:46:24;;;;;;;3.58;1.90;;;;;;;18.18;62.86;100186.06;4920155;29;20070;-91
2022/05/17 03:48:49;;;;;;;2.78;1.83;;;;;;;18.17;62.50;100187.09;4919938;29;20028;-90
2022/05/17 03:51:17;;;;;;;3.97;1.70;;;;;;;18.18;63.05;100190.66;4920276;29;20051;-90
2022/05/17 03:53:44;;;;;;;3.60;1.73;;;;;;;18.19;63.08;100189.63;4920201;29;20063;-91
2022/05/17 03:56:10;;;;;;;3.28;1.63;;;;;;;18.18;63.41;100187.94;4920328;29;20024;-90
2022/05/17 03:58:35;;;;;;;2.50;1.80;;;;;;;18.23;62.82;100190.94;4919816;29;20024;-91
2022/05/17 04:01:01;;;;;;;3.22;1.60;;;;;;;18.19;62.77;100185.03;4920021;29;20052;-91
2022/05/17 04:03:27;;;;;;;2.63;1.60;;;;;;;18.23;63.11;100186.38;4919007;29;20040;-90
2022/05/17 04:05:52;;;;;;;3.00;1.50;;;;;;;18.23;62.31;100194.50;4918838;29;20023;-86
2022/05/17 04:08:17;;;;;;;3.15;1.35;;;;;;;18.21;63.23;100190.28;4918242;29;20023;-86
2022/05/17 04:10:43;;;;;;;4.70;1.80;;;;;;;18.24;63.02;100187.22;4918493;29;20506;-86
2022/05/17 04:13:08;;;;;;;2.97;1.65;;;;;;;18.23;63.45;100189.06;4918355;29;20047;-86
2022/05/17 04:15:33;;;;;;;3.20;2.25;;;;;;;18.24;63.51;100185.34;4918443;29;20030;-87
2022/05/17 04:17:59;;;;;;;2.95;1.60;;;;;;;18.25;62.66;100186.19;4918385;29;20098;-87
2022/05/17 04:20:25;;;;;;;3.13;1.67;;;;;;;18.27;62.90;100184.13;4918438;29;20031;-86
2022/05/17 04:22:52;;;;;;;3.03;1.75;;;;;;;18.24;63.01;100179.94;4934294;29;20023;-86
2022/05/17 04:25:22;;;;;;;3.40;1.55;;;;;;;18.20;62.89;100172.34;4918501;29;20044;-87
2022/05/17 04:27:47;;;;;;;4.03;1.60;;;;;;;18.17;62.55;100180.84;4918302;29;20122;-87
2022/05/17 04:30:13;;;;;;;3.72;1.70;;;;;;;18.11;63.22;100184.28;4918220;29;20533;-86
2022/05/17 04:32:38;;;;;;;4.93;1.90;;;;;;;18.13;62.79;100183.06;4918138;29;20032;-87
2022/05/17 04:35:05;;;;;;;3.35;1.63;;;;;;;18.20;63.33;100202.97;4918213;29;20054;-87
2022/05/17 04:37:30;;;;;;;3.42;1.50;;;;;;;18.23;63.40;100201.78;4934024;29;20032;-87
2022/05/17 04:39:55;;;;;;;4.32;1.70;;;;;;;18.22;63.50;100197.38;4918195;29;20079;-87
2022/05/17 04:42:21;;;;;;;3.63;1.63;;;;;;;18.26;64.08;100209.53;4918071;29;20040;-86
2022/05/17 04:44:47;;;;;;;3.38;1.38;;;;;;;18.25;63.75;100205.97;4918283;29;20055;-86
2022/05/17 04:47:12;;;;;;;4.80;1.95;;;;;;;18.29;63.61;100203.75;4918203;29;20027;-87
2022/05/17 04:49:37;;;;;;;3.83;1.50;;;;;;;18.30;64.84;100200.00;4920678;29;20067;-86
2022/05/17 04:52:04;;;;;;;4.63;1.52;;;;;;;18.31;63.90;100198.16;4921790;29;20028;-87
2022/05/17 04:54:30;;;;;;;3.75;1.65;;;;;;;18.30;64.25;100200.00;4937936;29;20031;-87
2022/05/17 04:56:55;;;;;;;4.15;1.70;;;;;;;18.30;64.84;100208.13;4922257;29;20115;-87
2022/05/17 04:59:20;;;;;;;5.47;1.73;;;;;;;18.30;64.30;100205.44;4921789;29;20020;-87
2022/05/17 05:01:46;;;;;;;4.05;1.67;;;;;;;18.30;65.21;100210.84;4937859;29;20032;-87
2022/05/17 05:04:11;;;;;;;7.65;1.83;;;;;;;18.32;65.08;100214.22;4937370;29;20056;-87
2022/05/17 05:06:37;;;;;;;3.67;1.70;;;;;;;18.35;64.65;100213.00;4937564;29;20048;-87
2022/05/17 05:09:02;;;;;;;4.00;1.50;;;;;;;18.39;64.82;100209.75;4921682;29;20114;-87
2022/05/17 05:11:28;;;;;;;3.08;1.40;;;;;;;18.41;64.64;100212.28;4920871;29;20394;-87
2022/05/17 05:13:53;;;;;;;4.07;1.70;;;;;;;18.39;64.56;100217.03;4920649;29;20061;-87
2022/05/17 05:16:19;;;;;;;2.58;1.50;;;;;;;18.41;65.52;100220.41;4931682;29;20110;-87
2022/05/17 05:18:44;;;;;;;3.35;1.50;;;;;;;18.42;65.04;100213.97;4916919;29;20038;-87
2022/05/17 05:21:12;;;;;;;3.60;1.70;;;;;;;18.38;65.37;100210.78;4919010;29;20055;-87
2022/05/17 05:23:38;;;;;;;4.28;2.08;;;;;;;18.38;65.14;100208.06;4916428;29;20100;-87
2022/05/17 05:26:05;;;;;;;2.92;1.85;;;;;;;18.37;65.68;100203.69;4916647;29;20483;-87
2022/05/17 05:28:31;;;;;;;3.55;1.60;;;;;;;18.41;65.56;100207.69;4933176;29;20029;-87
2022/05/17 05:30:57;;;;;;;3.90;1.55;;;;;;;18.37;65.00;100208.25;4919532;29;20102;-87
2022/05/17 05:33:22;;;;;;;3.67;1.65;;;;;;;18.44;64.80;100207.34;4937025;29;20019;-87
2022/05/17 05:35:48;;;;;;;4.55;1.83;;;;;;;18.49;64.72;100212.25;4920988;29;20031;-87
2022/05/17 05:38:14;;;;;;;3.67;1.58;;;;;;;18.47;65.14;100217.00;4919994;29;20762;-87
2022/05/17 05:40:41;;;;;;;4.18;1.60;;;;;;;18.47;64.74;100209.72;4916887;29;20364;-87
2022/05/17 05:43:06;;;;;;;2.83;1.80;;;;;;;18.50;65.08;100214.75;4933564;29;20366;-87
2022/05/17 05:45:31;;;;;;;6.20;2.00;;;;;;;18.51;64.80;100211.03;4917334;29;20123;-89
2022/05/17 05:47:57;;;;;;;4.53;1.85;;;;;;;18.56;64.45;100218.59;4915328;29;20483;-89
2022/05/17 05:50:22;;;;;;;4.72;2.00;;;;;;;18.56;64.55;100214.03;4916783;29;20058;-89
2022/05/17 05:52:48;;;;;;;4.38;2.30;;;;;;;18.56;64.55;100211.31;4917927;29;20290;-88
2022/05/17 05:55:21;;;;;;;4.53;1.88;;;;;;;18.55;64.55;100211.50;4918053;29;20176;-89
2022/05/17 05:57:46;;;;;;;3.33;1.70;;;;;;;18.56;65.13;100213.19;4920987;29;20427;-88
2022/05/17 06:00:12;;;;;;;3.05;1.52;;;;;;;18.60;65.08;100219.91;4919980;29;20028;-88
2022/05/17 06:02:39;;;;;;;3.72;1.70;;;;;;;18.64;64.55;100213.13;4919959;29;20031;-89
2022/05/17 06:05:05;;;;;;;7.07;1.85;;;;;;;18.66;64.62;100218.38;4922170;29;20059;-90
2022/05/17 06:07:31;;;;;;;2.78;1.52;;;;;;;18.71;65.15;100216.78;4921821;29;20118;-89
2022/05/17 06:09:56;;;;;;;2.97;1.52;;;;;;;18.76;65.18;100213.53;4921790;29;20047;-90
2022/05/17 06:12:22;;;;;;;2.72;1.30;;;;;;;18.81;64.96;100224.66;4914054;29;20046;-89
2022/05/17 06:14:47;;;;;;;3.63;1.48;;;;;;;18.82;64.89;100220.91;4921052;29;20024;-89
2022/05/17 06:17:12;;;;;;;2.35;1.20;;;;;;;18.80;64.00;100218.38;4921743;29;20027;-89
2022/05/17 06:19:38;;;;;;;3.00;1.42;;;;;;;18.83;64.87;100222.59;4921957;29;20039;-88
2022/05/17 06:22:03;;;;;;;3.88;1.42;;;;;;;18.86;64.83;100225.78;4921772;29;20115;-88
2022/05/17 06:24:29;;;;;;;4.05;1.90;;;;;;;18.87;64.64;100222.03;4921409;29;20564;-89
2022/05/17 06:26:54;;;;;;;4.18;1.83;;;;;;;18.90;64.53;100223.53;4934777;29;20107;-88
2022/05/17 06:29:20;;;;;;;3.60;1.50;;;;;;;18.93;64.84;100231.34;4919900;29;20031;-88
2022/05/17 06:31:45;;;;;;;4.95;1.55;;;;;;;18.95;64.46;100221.16;4914949;29;20098;-88
2022/05/17 06:34:10;;;;;;;4.47;1.67;;;;;;;18.95;64.98;100223.00;4919179;29;20043;-71
2022/05/17 06:36:36;;;;;;;3.28;1.60;;;;;;;18.96;65.19;100228.25;4938318;29;20028;-93
2022/05/17 06:39:01;;;;;;;5.05;1.50;;;;;;;18.99;65.26;100227.88;4921944;29;20034;-94
2022/05/17 06:41:27;;;;;;;3.15;1.48;;;;;;;19.02;65.13;100227.50;4922254;29;20024;-93
2022/05/17 06:43:53;;;;;;;2.72;1.52;;;;;;;19.00;65.71;100234.97;4921632;29;20040;-94
2022/05/17 06:46:18;;;;;;;5.13;1.80;;;;;;;18.96;65.78;100239.09;4921742;29;20040;-94
2022/05/17 06:48:44;;;;;;;3.83;1.85;;;;;;;18.94;66.50;100241.16;4921544;29;20094;-94
2022/05/17 06:51:10;;;;;;;3.75;1.48;;;;;;;18.95;66.09;100242.00;4937446;29;20042;-94
2022/05/17 06:53:35;;;;;;;3.00;1.27;;;;;;;18.97;66.18;100246.19;4921962;29;20122;-94
2022/05/17 06:56:04;;;;;;;3.70;1.55;;;;;;;19.02;66.37;100241.06;4921435;29;20034;-94
2022/05/17 06:58:29;;;;;;;2.90;1.45;;;;;;;19.06;66.71;100247.78;4921389;29;20030;-94
2022/05/17 07:00:55;;;;;;;2.60;1.30;;;;;;;19.09;66.94;100246.56;4921229;29;20028;-94
2022/05/17 07:03:22;;;;;;;2.95;1.30;;;;;;;19.11;66.71;100253.50;4921048;29;20071;-94
2022/05/17 07:05:47;;;;;;;2.20;1.13;;;;;;;19.13;66.87;100256.88;4921351;29;20027;-93
2022/05/17 07:08:13;;;;;;;2.10;1.38;;;;;;;19.16;67.31;100264.63;4936988;29;20083;-94
2022/05/17 07:13:22;;;;;;;4.13;1.33;;;;;;;19.21;67.23;100260.50;4937082;29;20060;-94
2022/05/17 07:15:49;;;;;;;2.20;1.20;;;;;;;19.23;66.17;100263.88;4933194;29;20027;-92
2022/05/17 07:18:17;;;;;;;3.95;1.52;;;;;;;19.21;65.66;100268.66;4906152;29;20114;-88
2022/05/17 07:20:43;;;;;;;4.28;1.73;;;;;;;19.19;65.68;100266.97;4969554;28;20019;-88
2022/05/17 07:23:10;;;;;;;2.97;1.42;;;;;;;19.22;66.04;100270.34;4937750;29;20031;-88
2022/05/17 07:25:36;;;;;;;3.22;1.70;;;;;;;19.24;66.21;100269.13;4954579;29;20053;-88
2022/05/17 07:28:02;;;;;;;3.75;1.50;;;;;;;19.25;66.83;100273.50;4938372;29;20278;-88
2022/05/17 07:30:28;;;;;;;2.75;1.35;;;;;;;19.27;66.69;100285.00;4938318;29;20163;-88
2022/05/17 07:32:53;;;;;;;2.50;1.40;;;;;;;19.29;67.05;100282.13;4938696;29;20035;-87
2022/05/17 07:35:19;;;;;;;3.00;1.20;;;;;;;19.29;66.96;100274.81;4938558;29;20374;-88
2022/05/17 07:37:44;;;;;;;2.35;1.30;;;;;;;19.32;67.22;100276.31;4938762;29;20043;-88
2022/05/17 07:40:12;;;;;;;2.20;1.48;;;;;;;19.33;66.81;100278.00;4938567;29;20354;-88
2022/05/17 07:42:37;;;;;;;2.95;1.38;;;;;;;19.34;67.38;100285.09;4938616;29;20027;-87
2022/05/17 07:45:04;;;;;;;2.78;1.77;;;;;;;19.35;67.76;100289.50;4938636;29;20434;-87
2022/05/17 07:47:29;;;;;;;4.10;1.65;;;;;;;19.36;67.58;100286.59;4954571;28;20032;-89
2022/05/17 07:49:55;;;;;;;2.58;1.60;;;;;;;19.37;68.21;100287.44;4938193;29;20117;-88
2022/05/17 07:52:20;;;;;;;4.72;1.70;;;;;;;19.37;68.04;100293.72;4954229;29;20102;-88
2022/05/17 07:54:45;;;;;;;2.03;1.50;;;;;;;19.38;68.18;100286.41;4938255;29;20525;-88
2022/05/17 07:57:11;;;;;;;5.32;1.50;;;;;;;19.40;69.05;100293.38;4938222;29;20051;-87
2022/05/17 07:59:36;;;;;;;3.55;1.90;;;;;;;19.43;68.96;100289.44;4938066;29;20094;-88
2022/05/17 08:02:01;;;;;;;3.05;1.40;;;;;;;19.43;68.61;100284.84;4937934;29;20032;-87
2022/05/17 08:04:30;;;;;;;2.85;1.65;;;;;;;19.47;68.70;100288.88;4937782;29;20052;-87
2022/05/17 08:06:58;;;;;;;2.63;1.15;;;;;;;19.51;68.49;100283.91;4938597;29;20028;-88
2022/05/17 08:09:24;;;;;;;3.20;1.48;;;;;;;19.54;67.95;100283.56;4938549;29;20039;-88
2022/05/17 08:11:50;;;;;;;1.40;1.10;;;;;;;19.54;68.45;100286.28;4938093;29;20028;-87
2022/05/17 08:14:16;;;;;;;3.28;1.30;;;;;;;19.55;68.30;100285.25;4937858;29;20035;-87
2022/05/17 08:16:42;;;;;;;2.35;1.30;;;;;;;19.57;69.23;100293.22;4937878;29;20485;-88
2022/05/17 08:19:08;;;;;;;5.13;1.60;;;;;;;19.58;68.76;100279.44;4937808;29;20488;-88
2022/05/17 08:21:33;;;;;;;3.47;1.50;;;;;;;19.58;68.62;100279.44;4937889;29;20035;-87
2022/05/17 08:23:59;;;;;;;4.00;1.60;;;;;;;19.60;68.80;100282.81;4937279;29;20032;-87
2022/05/17 08:29:09;;;;;;;3.22;1.50;;;;;;;19.64;69.74;100286.84;4953394;29;20059;-87
2022/05/17 08:31:34;;;;;;;2.42;1.20;;;;;;;19.66;69.15;100284.78;4937573;29;20046;-87
2022/05/17 08:34:00;;;;;;;3.15;1.27;;;;;;;19.70;68.58;100288.78;4937662;29;20470;-88
2022/05/17 08:36:25;;;;;;;3.17;1.13;;;;;;;19.74;68.50;100286.53;4937731;29;20532;-88
2022/05/17 08:38:51;;;;;;;3.47;1.45;;;;;;;19.72;67.53;100288.59;4937916;29;20019;-88
2022/05/17 08:41:24;;;;;;;3.65;1.38;;;;;;;19.73;68.26;100288.41;4937731;29;20550;-88
2022/05/17 08:44:09;;;;;;;4.93;1.88;;;;;;;19.70;67.47;100287.94;4953472;28;20378;-87
2022/05/17 08:47:09;;;;;;;3.58;1.50;;;;;;;19.68;66.70;100292.72;4937841;29;20051;-88
2022/05/17 08:49:43;;;;;;;2.85;1.25;;;;;;;19.72;67.63;100285.88;4937969;29;20058;-88
2022/05/17 08:52:14;;;;;;;4.50;1.27;;;;;;;19.74;67.20;100279.25;4953672;29;20055;-88
2022/05/17 08:54:43;;;;;;;1.92;1.05;;;;;;;19.78;67.16;100272.41;4938234;29;20031;-94
2022/05/17 08:57:31;;;;;;;2.63;1.10;;;;;;;19.84;67.01;100269.94;4938957;29;20023;-93
2022/05/17 08:59:59;;;;;;;1.83;1.17;;;;;;;19.89;67.72;100278.41;4939332;29;20565;-93
2022/05/17 09:02:32;;;;;;;7.25;1.80;;;;;;;19.92;66.99;100269.88;4938647;28;20032;-93
2022/05/17 09:05:19;;;;;;;2.97;1.27;;;;;;;19.96;66.76;100272.00;4938558;29;20086;-93
2022/05/17 09:07:54;;;;;;;2.47;1.27;;;;;;;19.98;66.85;100264.50;4954619;29;20039;-94
2022/05/17 09:10:33;;;;;;;2.88;1.27;;;;;;;20.01;67.27;100274.16;4955051;29;20051;-94
2022/05/17 09:13:03;;;;;;;6.13;2.00;;;;;;;20.03;67.06;100274.78;4938009;29;20031;-87
2022/05/17 09:15:29;;;;;;;2.65;1.35;;;;;;;20.05;66.85;100278.16;4937600;29;20039;-87
2022/05/17 09:17:55;;;;;;;2.47;1.30;;;;;;;20.08;67.47;100283.22;4937432;29;20490;-87
2022/05/17 09:20:27;;;;;;;2.22;1.15;;;;;;;20.09;67.16;100280.31;4937379;29;20023;-88
2022/05/17 09:22:52;;;;;;;2.65;1.27;;;;;;;20.09;66.69;100282.19;4937291;29;20055;-87
2022/05/17 09:25:20;;;;;;;4.20;1.85;;;;;;;20.10;66.48;100279.28;4937104;29;20093;-87
2022/05/17 09:27:51;;;;;;;2.58;1.30;;;;;;;20.09;65.94;100285.72;4937190;29;20023;-88
2022/05/17 09:30:23;;;;;;;2.47;1.38;;;;;;;20.11;65.45;100280.13;4937199;29;20247;-87
2022/05/17 09:32:49;;;;;;;3.30;1.60;;;;;;;20.12;65.37;100274.50;4953010;28;20055;-87
2022/05/17 09:35:18;;;;;;;3.47;1.40;;;;;;;20.15;65.49;100278.69;4938661;29;20034;-88
2022/05/17 09:37:49;;;;;;;2.55;1.40;;;;;;;20.20;64.98;100270.81;4956287;29;20023;-87
2022/05/17 09:40:22;;;;;;;3.05;1.40;;;;;;;20.24;65.41;100274.81;4940562;29;20038;-87
2022/05/17 09:43:02;;;;;;;3.55;1.27;;;;;;;20.23;63.83;100278.56;4940594;29;20034;-87
2022/05/17 09:45:50;;;;;;;4.85;1.38;;;;;;;20.25;63.51;100276.50;4940526;29;20027;-88
2022/05/17 09:54:35;;;;;;;2.00;1.10;;;;;;;20.27;62.40;100268.16;4956588;29;20121;-87
2022/05/17 09:57:22;;;;;;;2.03;1.15;;;;;;;20.31;62.61;100270.28;4957614;29;20482;-87
2022/05/17 09:59:49;;;;;;;4.05;1.27;;;;;;;20.33;61.40;100264.66;4940332;29;20114;-87
2022/05/17 10:02:33;;;;;;;1.98;1.33;;;;;;;20.38;62.51;100267.66;4939998;28;20114;-87
2022/05/17 10:05:20;;;;;;;2.78;1.20;;;;;;;20.41;62.49;100265.44;4956851;28;20125;-87
2022/05/17 10:08:02;;;;;;;3.55;1.20;;;;;;;20.46;63.21;100259.41;4942801;29;20448;-87
2022/05/17 10:10:31;;;;;;;3.10;1.20;;;;;;;20.48;63.39;100253.78;4939943;29;20030;-88
2022/05/17 10:13:13;;;;;;;4.55;1.35;;;;;;;20.51;61.43;100250.69;4939892;29;20466;-87
2022/05/17 10:15:41;;;;;;;2.10;0.90;;;;;;;20.51;62.29;100250.69;4955847;29;20110;-87
2022/05/17 10:18:17;;;;;;;3.40;1.10;;;;;;;20.52;62.69;100244.22;4939803;29;20027;-87
2022/05/17 10:20:46;;;;;;;2.20;1.15;;;;;;;20.55;62.30;100243.81;4957003;28;20063;-87
2022/05/17 10:23:23;;;;;;;;;;;;;;;20.58;62.62;100238.00;4939947;29;20041;-88
2022/05/17 10:25:56;;;;;;;2.85;1.17;;;;;;;20.61;60.73;100234.88;4955646;28;19954;-88
2022/05/17 10:28:25;;;;;;;3.08;1.23;;;;;;;20.61;61.04;100224.00;4939561;29;20035;-89
2022/05/17 10:30:57;;;;;;;1.27;0.90;;;;;;;20.64;61.80;100218.19;4955569;29;20031;-88
2022/05/17 10:33:33;;;;;;;2.85;1.10;;;;;;;20.68;61.78;100220.31;4940006;29;20038;-88
2022/05/17 10:36:01;;;;;;;2.97;1.27;;;;;;;20.73;61.00;100219.72;4925765;29;20088;-86
2022/05/17 10:38:34;;;;;;;1.95;1.33;;;;;;;20.77;60.80;100217.44;4917370;29;20083;-86
2022/05/17 10:40:59;;;;;;;2.53;1.17;;;;;;;20.79;60.55;100209.91;4933619;29;20075;-86
2022/05/17 10:43:30;;;;;;;2.15;1.10;;;;;;;20.79;59.89;100209.91;4924043;29;20043;-86
2022/05/17 10:46:10;;;;;;;2.22;1.00;;;;;;;20.79;60.67;100201.75;4920642;29;21083;-86
2022/05/17 10:49:07;;;;;;;4.18;1.20;;;;;;;20.81;59.81;100205.13;4937156;29;20463;-86
2022/05/17 10:51:45;;;;;;;3.00;1.20;;;;;;;20.81;60.05;100210.56;4922986;29;20139;-86
2022/05/17 10:54:37;;;;;;;2.33;1.10;;;;;;;20.83;60.58;100209.34;4934674;29;20383;-86
2022/05/17 10:57:08;;;;;;;4.90;0.90;;;;;;;20.83;59.52;100200.34;4938527;29;20028;-86
2022/05/17 10:59:37;;;;;;;2.60;1.27;;;;;;;20.90;58.50;100206.69;4936765;29;20028;-86
2022/05/17 11:02:25;;;;;;;2.22;1.15;;;;;;;20.85;58.69;100201.00;4920240;29;20027;-86
2022/05/17 11:05:00;;;;;;;2.03;0.90;;;;;;;20.87;59.53;100202.47;4937356;29;20051;-85
2022/05/17 11:07:48;;;;;;;2.28;0.85;;;;;;;20.89;59.98;100197.69;4936253;29;20063;-86
2022/05/17 11:10:37;;;;;;;2.45;1.10;;;;;;;20.95;59.35;100198.75;4936286;29;20422;-85
2022/05/17 11:13:19;;;;;;;1.77;1.00;;;;;;;20.95;57.60;100183.28;4920381;29;20028;-86
2022/05/17 11:15:50;;;;;;;5.22;1.20;;;;;;;20.96;59.34;100187.69;4936227;29;20083;-91
2022/05/17 11:18:33;;;;;;;1.92;1.10;;;;;;;21.01;59.89;100182.50;4936994;29;20055;-91
2022/05/17 11:21:10;;;;;;;1.75;1.00;;;;;;;21.04;59.96;100186.69;4938148;29;20463;-90
2022/05/17 11:23:54;;;;;;;1.88;0.98;;;;;;;21.07;59.83;100186.28;4921011;29;20035;-91
2022/05/17 11:26:45;;;;;;;2.42;1.10;;;;;;;21.09;60.13;100180.63;4937331;29;20032;-91
2022/05/17 11:29:47;;;;;;;2.20;1.20;;;;;;;21.11;59.41;100175.84;4936655;29;20038;-91
2022/05/17 11:32:25;;;;;;;1.75;1.10;;;;;;;21.12;59.95;100174.81;4950823;28;20020;-87
2022/05/17 11:34:53;;;;;;;2.58;1.10;;;;;;;21.12;60.36;100167.47;5030239;23;20092;-93
2022/05/17 12:02:58;;;;;;;1.50;1.00;;;;;;;21.38;57.58;100149.66;5006189;23;20083;-94
2022/05/17 12:05:48;;;;;;;2.15;1.23;;;;;;;21.35;58.77;100148.19;4993163;23;20055;-86
2022/05/17 12:08:43;;;;;;;1.83;1.10;;;;;;;21.33;58.32;100148.38;4934992;29;20115;-94
2022/05/17 12:11:11;;;;;;;2.58;1.25;;;;;;;21.36;58.49;100139.81;4925380;29;20051;-88